sensor_id;sensor_type;location;lat;lon;timestamp;P1;durP1;ratioP1;P2;durP2;ratioP2
3959;SDS011;1994;48.640;8.894;2022-10-17T00:00:36;7.40;;;3.70;;
3959;SDS011;1994;48.640;8.894;2022-10-17T00:03:02;6.53;;;2.93;;
3959;SDS011;1994;48.640;8.894;2022-10-17T00:05:28;3.30;;;2.60;;
3959;SDS011;1994;48.640;8.894;2022-10-17T00:07:54;5.83;;;3.57;;
3959;SDS011;1994;48.640;8.894;2022-10-17T00:10:20;3.50;;;3.20;;
3959;SDS011;1994;48.640;8.894;2022-10-17T00:12:46;4.93;;;2.80;;
3959;SDS011;1994;48.640;8.894;2022-10-17T00:15:16;5.70;;;3.10;;
3959;SDS011;1994;48.640;8.894;2022-10-17T00:17:44;4.10;;;2.70;;
3959;SDS011;1994;48.640;8.894;2022-10-17T00:20:10;3.43;;;2.67;;
3959;SDS011;1994;48.640;8.894;2022-10-17T00:22:36;8.77;;;3.60;;
3959;SDS011;1994;48.640;8.894;2022-10-17T00:25:02;7.27;;;3.00;;
3959;SDS011;1994;48.640;8.894;2022-10-17T00:27:29;5.20;;;2.40;;
3959;SDS011;1994;48.640;8.894;2022-10-17T00:29:58;4.23;;;3.83;;
3959;SDS011;1994;48.640;8.894;2022-10-17T00:32:27;4.43;;;3.23;;
3959;SDS011;1994;48.640;8.894;2022-10-17T00:34:53;6.27;;;2.87;;
3959;SDS011;1994;48.640;8.894;2022-10-17T00:37:18;3.13;;;2.60;;
3959;SDS011;1994;48.640;8.894;2022-10-17T00:39:44;3.60;;;2.67;;
3959;SDS011;1994;48.640;8.894;2022-10-17T00:42:13;6.13;;;2.90;;
3959;SDS011;1994;48.640;8.894;2022-10-17T00:47:05;9.67;;;2.50;;
3959;SDS011;1994;48.640;8.894;2022-10-17T00:49:37;3.67;;;3.37;;
3959;SDS011;1994;48.640;8.894;2022-10-17T00:52:05;6.23;;;2.90;;
3959;SDS011;1994;48.640;8.894;2022-10-17T00:54:39;3.43;;;2.70;;
3959;SDS011;1994;48.640;8.894;2022-10-17T00:57:09;3.63;;;2.60;;
3959;SDS011;1994;48.640;8.894;2022-10-17T00:59:36;4.37;;;3.00;;
3959;SDS011;1994;48.640;8.894;2022-10-17T01:02:07;5.80;;;3.00;;
3959;SDS011;1994;48.640;8.894;2022-10-17T01:04:40;2.70;;;2.50;;
3959;SDS011;1994;48.640;8.894;2022-10-17T01:07:12;8.20;;;3.30;;
3959;SDS011;1994;48.640;8.894;2022-10-17T01:09:41;3.83;;;3.00;;
3959;SDS011;1994;48.640;8.894;2022-10-17T01:15:10;2.37;;;2.27;;
3959;SDS011;1994;48.640;8.894;2022-10-17T01:27:24;6.93;;;3.37;;
3959;SDS011;1994;48.640;8.894;2022-10-17T01:35:58;2.60;;;2.40;;
3959;SDS011;1994;48.640;8.894;2022-10-17T01:38:37;4.77;;;3.10;;
3959;SDS011;1994;48.640;8.894;2022-10-17T01:47:20;4.17;;;2.70;;
3959;SDS011;1994;48.640;8.894;2022-10-17T01:49:53;4.00;;;3.30;;
3959;SDS011;1994;48.640;8.894;2022-10-17T01:52:34;3.70;;;3.10;;
3959;SDS011;1994;48.640;8.894;2022-10-17T01:55:28;3.57;;;2.60;;
3959;SDS011;1994;48.640;8.894;2022-10-17T01:58:06;7.70;;;3.00;;
3959;SDS011;1994;48.640;8.894;2022-10-17T02:01:03;3.97;;;3.50;;
3959;SDS011;1994;48.640;8.894;2022-10-17T02:03:31;4.00;;;3.63;;
3959;SDS011;1994;48.640;8.894;2022-10-17T02:05:59;5.67;;;2.60;;
3959;SDS011;1994;48.640;8.894;2022-10-17T02:08:26;3.50;;;2.57;;
3959;SDS011;1994;48.640;8.894;2022-10-17T02:11:05;6.37;;;3.40;;
3959;SDS011;1994;48.640;8.894;2022-10-17T02:13:50;14.03;;;2.83;;
3959;SDS011;1994;48.640;8.894;2022-10-17T02:19:40;3.63;;;3.00;;
3959;SDS011;1994;48.640;8.894;2022-10-17T02:22:33;2.80;;;2.40;;
3959;SDS011;1994;48.640;8.894;2022-10-17T02:27:56;4.67;;;3.20;;
3959;SDS011;1994;48.640;8.894;2022-10-17T02:31:35;8.70;;;3.60;;
3959;SDS011;1994;48.640;8.894;2022-10-17T02:34:36;3.33;;;3.03;;
3959;SDS011;1994;48.640;8.894;2022-10-17T02:36:51;4.87;;;3.53;;
3959;SDS011;1994;48.640;8.894;2022-10-17T02:39:22;5.40;;;3.10;;
3959;SDS011;1994;48.640;8.894;2022-10-17T02:41:49;5.37;;;3.27;;
3959;SDS011;1994;48.640;8.894;2022-10-17T02:44:16;4.40;;;3.07;;
3959;SDS011;1994;48.640;8.894;2022-10-17T02:46:44;3.40;;;3.10;;
3959;SDS011;1994;48.640;8.894;2022-10-17T02:49:23;15.23;;;3.30;;
3959;SDS011;1994;48.640;8.894;2022-10-17T02:55:16;3.20;;;2.90;;
3959;SDS011;1994;48.640;8.894;2022-10-17T02:58:11;5.43;;;2.87;;
3959;SDS011;1994;48.640;8.894;2022-10-17T03:00:46;3.33;;;2.83;;
3959;SDS011;1994;48.640;8.894;2022-10-17T03:05:57;4.50;;;2.97;;
3959;SDS011;1994;48.640;8.894;2022-10-17T03:08:23;5.90;;;3.30;;
3959;SDS011;1994;48.640;8.894;2022-10-17T03:10:49;4.30;;;2.53;;
3959;SDS011;1994;48.640;8.894;2022-10-17T03:13:15;4.17;;;3.27;;
3959;SDS011;1994;48.640;8.894;2022-10-17T03:15:41;5.60;;;3.80;;
3959;SDS011;1994;48.640;8.894;2022-10-17T03:18:07;6.17;;;3.20;;
3959;SDS011;1994;48.640;8.894;2022-10-17T03:20:33;3.10;;;2.90;;
3959;SDS011;1994;48.640;8.894;2022-10-17T03:22:59;3.67;;;3.27;;
3959;SDS011;1994;48.640;8.894;2022-10-17T03:25:27;8.33;;;4.30;;
3959;SDS011;1994;48.640;8.894;2022-10-17T03:27:53;6.23;;;4.67;;
3959;SDS011;1994;48.640;8.894;2022-10-17T03:30:23;8.40;;;4.50;;
3959;SDS011;1994;48.640;8.894;2022-10-17T03:32:48;5.30;;;4.10;;
3959;SDS011;1994;48.640;8.894;2022-10-17T03:35:14;5.00;;;3.47;;
3959;SDS011;1994;48.640;8.894;2022-10-17T03:37:40;6.23;;;3.57;;
3959;SDS011;1994;48.640;8.894;2022-10-17T03:40:06;10.23;;;4.00;;
3959;SDS011;1994;48.640;8.894;2022-10-17T03:42:32;5.70;;;3.40;;
3959;SDS011;1994;48.640;8.894;2022-10-17T03:44:58;4.27;;;3.33;;
3959;SDS011;1994;48.640;8.894;2022-10-17T03:47:27;7.23;;;3.77;;
3959;SDS011;1994;48.640;8.894;2022-10-17T03:49:53;5.53;;;3.53;;
3959;SDS011;1994;48.640;8.894;2022-10-17T03:52:18;6.23;;;3.53;;
3959;SDS011;1994;48.640;8.894;2022-10-17T03:54:44;6.03;;;3.37;;
3959;SDS011;1994;48.640;8.894;2022-10-17T03:57:12;4.43;;;3.23;;
3959;SDS011;1994;48.640;8.894;2022-10-17T03:59:38;3.03;;;2.83;;
3959;SDS011;1994;48.640;8.894;2022-10-17T04:02:07;3.57;;;2.60;;
3959;SDS011;1994;48.640;8.894;2022-10-17T04:04:33;5.33;;;3.30;;
3959;SDS011;1994;48.640;8.894;2022-10-17T04:06:58;5.63;;;3.20;;
3959;SDS011;1994;48.640;8.894;2022-10-17T04:09:24;5.40;;;3.77;;
3959;SDS011;1994;48.640;8.894;2022-10-17T04:11:50;4.90;;;3.10;;
3959;SDS011;1994;48.640;8.894;2022-10-17T04:14:16;4.97;;;3.20;;
3959;SDS011;1994;48.640;8.894;2022-10-17T04:16:42;5.27;;;3.50;;
3959;SDS011;1994;48.640;8.894;2022-10-17T04:19:09;5.73;;;3.70;;
3959;SDS011;1994;48.640;8.894;2022-10-17T04:21:37;8.07;;;3.90;;
3959;SDS011;1994;48.640;8.894;2022-10-17T04:24:03;4.20;;;3.50;;
3959;SDS011;1994;48.640;8.894;2022-10-17T04:26:29;4.10;;;3.40;;
3959;SDS011;1994;48.640;8.894;2022-10-17T04:28:55;5.30;;;3.60;;
3959;SDS011;1994;48.640;8.894;2022-10-17T04:31:21;5.60;;;3.80;;
3959;SDS011;1994;48.640;8.894;2022-10-17T04:33:47;5.03;;;3.87;;
3959;SDS011;1994;48.640;8.894;2022-10-17T04:36:15;6.37;;;3.90;;
3959;SDS011;1994;48.640;8.894;2022-10-17T04:38:43;8.60;;;4.03;;
3959;SDS011;1994;48.640;8.894;2022-10-17T04:41:13;5.73;;;4.23;;
3959;SDS011;1994;48.640;8.894;2022-10-17T04:43:42;4.00;;;3.60;;
3959;SDS011;1994;48.640;8.894;2022-10-17T04:46:09;5.37;;;4.60;;
3959;SDS011;1994;48.640;8.894;2022-10-17T04:48:38;6.93;;;3.60;;
3959;SDS011;1994;48.640;8.894;2022-10-17T04:51:13;7.20;;;4.27;;
3959;SDS011;1994;48.640;8.894;2022-10-17T04:53:42;4.10;;;3.50;;
3959;SDS011;1994;48.640;8.894;2022-10-17T04:58:47;4.43;;;3.87;;
3959;SDS011;1994;48.640;8.894;2022-10-17T05:01:17;14.63;;;4.10;;
3959;SDS011;1994;48.640;8.894;2022-10-17T05:03:45;4.13;;;3.70;;
3959;SDS011;1994;48.640;8.894;2022-10-17T05:06:16;4.77;;;3.70;;
3959;SDS011;1994;48.640;8.894;2022-10-17T05:08:47;6.30;;;3.60;;
3959;SDS011;1994;48.640;8.894;2022-10-17T05:11:16;3.93;;;3.30;;
3959;SDS011;1994;48.640;8.894;2022-10-17T05:13:58;5.07;;;3.73;;
3959;SDS011;1994;48.640;8.894;2022-10-17T05:16:29;6.93;;;4.90;;
3959;SDS011;1994;48.640;8.894;2022-10-17T05:18:55;5.27;;;3.90;;
3959;SDS011;1994;48.640;8.894;2022-10-17T05:21:23;5.57;;;4.27;;
3959;SDS011;1994;48.640;8.894;2022-10-17T05:23:50;3.67;;;3.37;;
3959;SDS011;1994;48.640;8.894;2022-10-17T05:26:17;7.50;;;4.40;;
3959;SDS011;1994;48.640;8.894;2022-10-17T05:28:43;5.80;;;3.73;;
3959;SDS011;1994;48.640;8.894;2022-10-17T05:31:09;4.83;;;3.70;;
3959;SDS011;1994;48.640;8.894;2022-10-17T05:33:36;7.17;;;4.50;;
3959;SDS011;1994;48.640;8.894;2022-10-17T05:36:05;4.10;;;3.67;;
3959;SDS011;1994;48.640;8.894;2022-10-17T05:38:32;7.50;;;3.83;;
3959;SDS011;1994;48.640;8.894;2022-10-17T05:40:58;7.30;;;4.27;;
3959;SDS011;1994;48.640;8.894;2022-10-17T05:43:26;7.43;;;4.20;;
3959;SDS011;1994;48.640;8.894;2022-10-17T05:45:53;5.00;;;3.97;;
3959;SDS011;1994;48.640;8.894;2022-10-17T05:48:20;8.30;;;4.40;;
3959;SDS011;1994;48.640;8.894;2022-10-17T05:50:47;14.43;;;4.10;;
3959;SDS011;1994;48.640;8.894;2022-10-17T05:53:13;5.30;;;4.00;;
3959;SDS011;1994;48.640;8.894;2022-10-17T05:55:40;5.03;;;4.20;;
3959;SDS011;1994;48.640;8.894;2022-10-17T05:58:06;9.93;;;4.00;;
3959;SDS011;1994;48.640;8.894;2022-10-17T06:00:36;5.93;;;4.00;;
3959;SDS011;1994;48.640;8.894;2022-10-17T06:03:01;4.03;;;3.63;;
3959;SDS011;1994;48.640;8.894;2022-10-17T06:05:30;7.67;;;4.10;;
3959;SDS011;1994;48.640;8.894;2022-10-17T06:07:58;6.50;;;3.30;;
3959;SDS011;1994;48.640;8.894;2022-10-17T06:10:27;4.13;;;3.47;;
3959;SDS011;1994;48.640;8.894;2022-10-17T06:12:53;7.27;;;4.10;;
3959;SDS011;1994;48.640;8.894;2022-10-17T06:15:19;8.93;;;3.60;;
3959;SDS011;1994;48.640;8.894;2022-10-17T06:17:44;5.13;;;3.70;;
3959;SDS011;1994;48.640;8.894;2022-10-17T06:20:10;16.13;;;8.97;;
3959;SDS011;1994;48.640;8.894;2022-10-17T06:22:36;4.23;;;3.53;;
3959;SDS011;1994;48.640;8.894;2022-10-17T06:25:01;11.43;;;3.83;;
3959;SDS011;1994;48.640;8.894;2022-10-17T06:27:30;6.40;;;4.60;;
3959;SDS011;1994;48.640;8.894;2022-10-17T06:29:56;6.07;;;3.57;;
3959;SDS011;1994;48.640;8.894;2022-10-17T06:32:28;6.93;;;3.70;;
3959;SDS011;1994;48.640;8.894;2022-10-17T06:34:53;5.67;;;4.07;;
3959;SDS011;1994;48.640;8.894;2022-10-17T06:37:19;4.73;;;3.40;;
3959;SDS011;1994;48.640;8.894;2022-10-17T06:39:45;4.07;;;3.53;;
3959;SDS011;1994;48.640;8.894;2022-10-17T06:42:11;9.47;;;4.10;;
3959;SDS011;1994;48.640;8.894;2022-10-17T06:44:36;5.40;;;3.80;;
3959;SDS011;1994;48.640;8.894;2022-10-17T06:47:03;6.80;;;4.30;;
3959;SDS011;1994;48.640;8.894;2022-10-17T06:49:29;8.30;;;4.40;;
3959;SDS011;1994;48.640;8.894;2022-10-17T06:51:56;4.40;;;3.80;;
3959;SDS011;1994;48.640;8.894;2022-10-17T06:54:22;7.57;;;3.90;;
3959;SDS011;1994;48.640;8.894;2022-10-17T06:56:48;16.10;;;3.97;;
3959;SDS011;1994;48.640;8.894;2022-10-17T06:59:14;4.03;;;3.00;;
3959;SDS011;1994;48.640;8.894;2022-10-17T07:01:40;15.50;;;3.87;;
3959;SDS011;1994;48.640;8.894;2022-10-17T07:04:06;8.47;;;4.20;;
3959;SDS011;1994;48.640;8.894;2022-10-17T07:06:34;7.10;;;3.70;;
3959;SDS011;1994;48.640;8.894;2022-10-17T07:09:00;9.03;;;3.80;;
3959;SDS011;1994;48.640;8.894;2022-10-17T07:11:26;10.27;;;4.00;;
3959;SDS011;1994;48.640;8.894;2022-10-17T07:13:52;7.90;;;3.77;;
3959;SDS011;1994;48.640;8.894;2022-10-17T07:16:18;8.20;;;4.30;;
3959;SDS011;1994;48.640;8.894;2022-10-17T07:18:47;4.70;;;4.00;;
3959;SDS011;1994;48.640;8.894;2022-10-17T07:21:14;4.50;;;3.57;;
3959;SDS011;1994;48.640;8.894;2022-10-17T07:23:40;8.73;;;4.40;;
3959;SDS011;1994;48.640;8.894;2022-10-17T07:26:07;5.30;;;3.90;;
3959;SDS011;1994;48.640;8.894;2022-10-17T07:28:37;10.23;;;4.63;;
3959;SDS011;1994;48.640;8.894;2022-10-17T07:31:13;7.20;;;3.63;;
3959;SDS011;1994;48.640;8.894;2022-10-17T07:33:42;3.93;;;3.33;;
3959;SDS011;1994;48.640;8.894;2022-10-17T07:36:09;6.10;;;3.73;;
3959;SDS011;1994;48.640;8.894;2022-10-17T07:38:35;17.53;;;3.57;;
3959;SDS011;1994;48.640;8.894;2022-10-17T07:41:03;4.57;;;3.37;;
3959;SDS011;1994;48.640;8.894;2022-10-17T07:43:31;4.17;;;3.07;;
3959;SDS011;1994;48.640;8.894;2022-10-17T07:45:59;4.53;;;3.50;;
3959;SDS011;1994;48.640;8.894;2022-10-17T07:48:25;4.67;;;3.00;;
3959;SDS011;1994;48.640;8.894;2022-10-17T07:50:52;9.17;;;3.23;;
3959;SDS011;1994;48.640;8.894;2022-10-17T07:53:17;6.30;;;3.30;;
3959;SDS011;1994;48.640;8.894;2022-10-17T07:55:43;6.93;;;3.03;;
3959;SDS011;1994;48.640;8.894;2022-10-17T07:58:10;4.23;;;2.97;;
3959;SDS011;1994;48.640;8.894;2022-10-17T08:00:38;3.90;;;3.20;;
3959;SDS011;1994;48.640;8.894;2022-10-17T08:03:06;3.20;;;2.90;;
3959;SDS011;1994;48.640;8.894;2022-10-17T08:05:34;3.53;;;3.23;;
3959;SDS011;1994;48.640;8.894;2022-10-17T08:08:00;4.27;;;3.40;;
3959;SDS011;1994;48.640;8.894;2022-10-17T08:10:26;6.47;;;3.03;;
3959;SDS011;1994;48.640;8.894;2022-10-17T08:12:54;4.40;;;3.80;;
3959;SDS011;1994;48.640;8.894;2022-10-17T08:15:24;6.10;;;3.20;;
3959;SDS011;1994;48.640;8.894;2022-10-17T08:17:51;11.13;;;3.33;;
3959;SDS011;1994;48.640;8.894;2022-10-17T08:20:19;5.20;;;3.70;;
3959;SDS011;1994;48.640;8.894;2022-10-17T08:22:52;4.50;;;4.00;;
3959;SDS011;1994;48.640;8.894;2022-10-17T08:25:19;5.27;;;3.00;;
3959;SDS011;1994;48.640;8.894;2022-10-17T08:27:45;9.30;;;4.07;;
3959;SDS011;1994;48.640;8.894;2022-10-17T08:30:11;5.13;;;3.70;;
3959;SDS011;1994;48.640;8.894;2022-10-17T08:32:37;5.20;;;3.47;;
3959;SDS011;1994;48.640;8.894;2022-10-17T08:35:07;7.77;;;3.47;;
3959;SDS011;1994;48.640;8.894;2022-10-17T08:37:36;5.87;;;3.43;;
3959;SDS011;1994;48.640;8.894;2022-10-17T08:40:02;5.30;;;3.50;;
3959;SDS011;1994;48.640;8.894;2022-10-17T08:45:32;9.53;;;3.30;;
3959;SDS011;1994;48.640;8.894;2022-10-17T08:48:12;3.20;;;2.90;;
3959;SDS011;1994;48.640;8.894;2022-10-17T08:50:43;13.00;;;3.90;;
3959;SDS011;1994;48.640;8.894;2022-10-17T08:56:18;5.87;;;3.47;;
3959;SDS011;1994;48.640;8.894;2022-10-17T08:58:48;3.17;;;2.87;;
3959;SDS011;1994;48.640;8.894;2022-10-17T09:06:43;3.13;;;2.83;;
3959;SDS011;1994;48.640;8.894;2022-10-17T09:12:22;3.13;;;2.80;;
3959;SDS011;1994;48.640;8.894;2022-10-17T09:20:25;2.50;;;2.30;;
3959;SDS011;1994;48.640;8.894;2022-10-17T09:25:44;6.87;;;3.20;;
3959;SDS011;1994;48.640;8.894;2022-10-17T09:28:24;4.27;;;2.67;;
3959;SDS011;1994;48.640;8.894;2022-10-17T09:31:03;5.23;;;3.10;;
3959;SDS011;1994;48.640;8.894;2022-10-17T09:33:46;2.33;;;2.13;;
3959;SDS011;1994;48.640;8.894;2022-10-17T09:36:28;6.33;;;3.10;;
3959;SDS011;1994;48.640;8.894;2022-10-17T09:38:59;3.97;;;2.83;;
3959;SDS011;1994;48.640;8.894;2022-10-17T09:44:10;3.77;;;2.43;;
3959;SDS011;1994;48.640;8.894;2022-10-17T09:49:40;5.57;;;3.17;;
3959;SDS011;1994;48.640;8.894;2022-10-17T09:52:20;34.73;;;7.90;;
3959;SDS011;1994;48.640;8.894;2022-10-17T09:54:59;4.23;;;2.70;;
3959;SDS011;1994;48.640;8.894;2022-10-17T09:58:01;3.17;;;2.77;;
3959;SDS011;1994;48.640;8.894;2022-10-17T10:00:31;3.13;;;2.70;;
3959;SDS011;1994;48.640;8.894;2022-10-17T10:03:19;5.07;;;2.87;;
3959;SDS011;1994;48.640;8.894;2022-10-17T10:08:27;3.60;;;2.93;;
3959;SDS011;1994;48.640;8.894;2022-10-17T10:11:15;5.80;;;2.73;;
3959;SDS011;1994;48.640;8.894;2022-10-17T10:13:42;26.17;;;4.80;;
3959;SDS011;1994;48.640;8.894;2022-10-17T10:18:55;3.70;;;2.67;;
3959;SDS011;1994;48.640;8.894;2022-10-17T10:21:22;3.83;;;2.50;;
3959;SDS011;1994;48.640;8.894;2022-10-17T10:26:47;3.40;;;3.07;;
3959;SDS011;1994;48.640;8.894;2022-10-17T10:29:19;3.03;;;2.73;;
3959;SDS011;1994;48.640;8.894;2022-10-17T10:31:54;8.40;;;2.57;;
3959;SDS011;1994;48.640;8.894;2022-10-17T10:34:31;5.80;;;3.03;;
3959;SDS011;1994;48.640;8.894;2022-10-17T10:37:13;4.70;;;2.87;;
3959;SDS011;1994;48.640;8.894;2022-10-17T10:40:05;3.83;;;3.40;;
3959;SDS011;1994;48.640;8.894;2022-10-17T10:42:39;7.70;;;2.97;;
3959;SDS011;1994;48.640;8.894;2022-10-17T10:50:58;7.77;;;3.00;;
3959;SDS011;1994;48.640;8.894;2022-10-17T10:56:27;4.17;;;2.50;;
3959;SDS011;1994;48.640;8.894;2022-10-17T11:04:45;6.30;;;2.27;;
3959;SDS011;1994;48.640;8.894;2022-10-17T11:19:31;3.43;;;2.50;;
3959;SDS011;1994;48.640;8.894;2022-10-17T11:25:27;4.40;;;2.13;;
3959;SDS011;1994;48.640;8.894;2022-10-17T11:28:01;2.80;;;2.60;;
3959;SDS011;1994;48.640;8.894;2022-10-17T11:30:43;3.50;;;2.47;;
3959;SDS011;1994;48.640;8.894;2022-10-17T11:33:28;3.80;;;2.53;;
3959;SDS011;1994;48.640;8.894;2022-10-17T11:36:05;4.63;;;2.70;;
3959;SDS011;1994;48.640;8.894;2022-10-17T11:38:55;5.53;;;2.60;;
3959;SDS011;1994;48.640;8.894;2022-10-17T11:53:08;2.33;;;2.10;;
3959;SDS011;1994;48.640;8.894;2022-10-17T11:56:02;3.00;;;2.67;;
3959;SDS011;1994;48.640;8.894;2022-10-17T12:01:33;3.23;;;2.10;;
3959;SDS011;1994;48.640;8.894;2022-10-17T12:07:21;4.73;;;2.10;;
3959;SDS011;1994;48.640;8.894;2022-10-17T12:10:30;6.43;;;2.17;;
3959;SDS011;1994;48.640;8.894;2022-10-17T12:15:53;3.67;;;2.50;;
3959;SDS011;1994;48.640;8.894;2022-10-17T12:18:42;4.17;;;2.90;;
3959;SDS011;1994;48.640;8.894;2022-10-17T12:21:08;2.33;;;1.90;;
3959;SDS011;1994;48.640;8.894;2022-10-17T12:23:37;1.97;;;1.67;;
3959;SDS011;1994;48.640;8.894;2022-10-17T12:26:05;1.80;;;1.47;;
3959;SDS011;1994;48.640;8.894;2022-10-17T12:33:53;1.60;;;1.50;;
3959;SDS011;1994;48.640;8.894;2022-10-17T12:52:22;4.60;;;1.77;;
3959;SDS011;1994;48.640;8.894;2022-10-17T13:00:43;3.37;;;1.67;;
3959;SDS011;1994;48.640;8.894;2022-10-17T13:05:52;3.53;;;2.17;;
3959;SDS011;1994;48.640;8.894;2022-10-17T13:08:25;1.93;;;1.73;;
3959;SDS011;1994;48.640;8.894;2022-10-17T13:11:02;4.77;;;2.20;;
3959;SDS011;1994;48.640;8.894;2022-10-17T13:13:45;6.63;;;2.20;;
3959;SDS011;1994;48.640;8.894;2022-10-17T13:16:30;3.70;;;1.93;;
3959;SDS011;1994;48.640;8.894;2022-10-17T13:18:57;3.30;;;1.67;;
3959;SDS011;1994;48.640;8.894;2022-10-17T13:21:24;1.87;;;1.60;;
3959;SDS011;1994;48.640;8.894;2022-10-17T13:23:51;2.90;;;1.60;;
3959;SDS011;1994;48.640;8.894;2022-10-17T13:26:22;3.63;;;1.80;;
3959;SDS011;1994;48.640;8.894;2022-10-17T13:29:10;1.80;;;1.47;;
3959;SDS011;1994;48.640;8.894;2022-10-17T13:31:40;4.53;;;2.10;;
3959;SDS011;1994;48.640;8.894;2022-10-17T13:34:15;4.20;;;1.70;;
3959;SDS011;1994;48.640;8.894;2022-10-17T13:36:46;3.13;;;1.93;;
3959;SDS011;1994;48.640;8.894;2022-10-17T13:39:18;3.80;;;1.90;;
3959;SDS011;1994;48.640;8.894;2022-10-17T13:41:46;4.37;;;2.20;;
3959;SDS011;1994;48.640;8.894;2022-10-17T13:44:14;9.27;;;2.27;;
3959;SDS011;1994;48.640;8.894;2022-10-17T13:46:53;2.60;;;1.50;;
3959;SDS011;1994;48.640;8.894;2022-10-17T13:49:25;2.30;;;1.73;;
3959;SDS011;1994;48.640;8.894;2022-10-17T13:52:18;4.50;;;2.00;;
3959;SDS011;1994;48.640;8.894;2022-10-17T13:54:48;6.73;;;1.60;;
3959;SDS011;1994;48.640;8.894;2022-10-17T14:00:09;2.63;;;2.07;;
3959;SDS011;1994;48.640;8.894;2022-10-17T14:02:44;3.30;;;2.47;;
3959;SDS011;1994;48.640;8.894;2022-10-17T14:05:19;6.57;;;3.20;;
3959;SDS011;1994;48.640;8.894;2022-10-17T14:10:41;6.03;;;2.13;;
3959;SDS011;1994;48.640;8.894;2022-10-17T14:15:55;2.23;;;2.03;;
3959;SDS011;1994;48.640;8.894;2022-10-17T14:18:34;2.33;;;1.90;;
3959;SDS011;1994;48.640;8.894;2022-10-17T14:21:01;6.43;;;1.70;;
3959;SDS011;1994;48.640;8.894;2022-10-17T14:23:35;2.20;;;2.00;;
3959;SDS011;1994;48.640;8.894;2022-10-17T14:29:03;2.23;;;2.03;;
3959;SDS011;1994;48.640;8.894;2022-10-17T14:31:41;7.67;;;2.80;;
3959;SDS011;1994;48.640;8.894;2022-10-17T14:34:15;4.07;;;2.73;;
3959;SDS011;1994;48.640;8.894;2022-10-17T14:36:51;3.53;;;2.80;;
3959;SDS011;1994;48.640;8.894;2022-10-17T14:39:18;6.00;;;2.40;;
3959;SDS011;1994;48.640;8.894;2022-10-17T14:41:48;14.13;;;2.60;;
3959;SDS011;1994;48.640;8.894;2022-10-17T14:44:19;9.17;;;3.07;;
3959;SDS011;1994;48.640;8.894;2022-10-17T14:46:58;3.43;;;2.13;;
3959;SDS011;1994;48.640;8.894;2022-10-17T14:49:31;6.30;;;2.60;;
3959;SDS011;1994;48.640;8.894;2022-10-17T14:54:42;2.27;;;2.07;;
3959;SDS011;1994;48.640;8.894;2022-10-17T14:57:14;3.33;;;1.93;;
3959;SDS011;1994;48.640;8.894;2022-10-17T14:59:50;3.47;;;2.47;;
3959;SDS011;1994;48.640;8.894;2022-10-17T15:02:18;8.23;;;2.33;;
3959;SDS011;1994;48.640;8.894;2022-10-17T15:04:47;5.60;;;2.50;;
3959;SDS011;1994;48.640;8.894;2022-10-17T15:07:14;8.80;;;2.33;;
3959;SDS011;1994;48.640;8.894;2022-10-17T15:09:42;4.77;;;2.07;;
3959;SDS011;1994;48.640;8.894;2022-10-17T15:12:18;3.57;;;1.97;;
3959;SDS011;1994;48.640;8.894;2022-10-17T15:14:49;9.80;;;2.30;;
3959;SDS011;1994;48.640;8.894;2022-10-17T15:17:31;4.37;;;2.60;;
3959;SDS011;1994;48.640;8.894;2022-10-17T15:19:59;5.23;;;2.97;;
3959;SDS011;1994;48.640;8.894;2022-10-17T15:22:25;2.83;;;2.63;;
3959;SDS011;1994;48.640;8.894;2022-10-17T15:24:51;4.43;;;2.13;;
3959;SDS011;1994;48.640;8.894;2022-10-17T15:27:18;4.60;;;2.80;;
3959;SDS011;1994;48.640;8.894;2022-10-17T15:29:47;5.23;;;2.77;;
3959;SDS011;1994;48.640;8.894;2022-10-17T15:32:14;9.00;;;2.47;;
3959;SDS011;1994;48.640;8.894;2022-10-17T15:34:40;3.07;;;2.43;;
3959;SDS011;1994;48.640;8.894;2022-10-17T15:37:06;4.97;;;3.80;;
3959;SDS011;1994;48.640;8.894;2022-10-17T15:39:42;5.00;;;2.63;;
3959;SDS011;1994;48.640;8.894;2022-10-17T15:42:10;2.40;;;2.20;;
3959;SDS011;1994;48.640;8.894;2022-10-17T15:44:36;3.23;;;2.93;;
3959;SDS011;1994;48.640;8.894;2022-10-17T15:47:03;7.30;;;2.10;;
3959;SDS011;1994;48.640;8.894;2022-10-17T15:49:29;4.60;;;2.30;;
3959;SDS011;1994;48.640;8.894;2022-10-17T15:51:55;2.90;;;2.17;;
3959;SDS011;1994;48.640;8.894;2022-10-17T15:54:20;2.80;;;2.00;;
3959;SDS011;1994;48.640;8.894;2022-10-17T15:56:48;3.20;;;2.30;;
3959;SDS011;1994;48.640;8.894;2022-10-17T15:59:19;2.80;;;2.30;;
3959;SDS011;1994;48.640;8.894;2022-10-17T16:01:51;3.17;;;2.10;;
3959;SDS011;1994;48.640;8.894;2022-10-17T16:04:17;7.20;;;2.63;;
3959;SDS011;1994;48.640;8.894;2022-10-17T16:06:42;4.13;;;2.20;;
3959;SDS011;1994;48.640;8.894;2022-10-17T16:09:09;6.97;;;3.10;;
3959;SDS011;1994;48.640;8.894;2022-10-17T16:11:36;10.83;;;2.70;;
3959;SDS011;1994;48.640;8.894;2022-10-17T16:14:05;2.50;;;2.17;;
3959;SDS011;1994;48.640;8.894;2022-10-17T16:16:42;6.53;;;3.07;;
3959;SDS011;1994;48.640;8.894;2022-10-17T16:19:08;7.23;;;3.37;;
3959;SDS011;1994;48.640;8.894;2022-10-17T16:21:36;8.40;;;2.90;;
3959;SDS011;1994;48.640;8.894;2022-10-17T16:24:04;6.63;;;2.67;;
3959;SDS011;1994;48.640;8.894;2022-10-17T16:26:30;10.00;;;3.13;;
3959;SDS011;1994;48.640;8.894;2022-10-17T16:28:56;3.63;;;2.80;;
3959;SDS011;1994;48.640;8.894;2022-10-17T16:31:27;3.00;;;2.70;;
3959;SDS011;1994;48.640;8.894;2022-10-17T16:34:02;9.43;;;5.10;;
3959;SDS011;1994;48.640;8.894;2022-10-17T16:36:30;4.27;;;3.17;;
3959;SDS011;1994;48.640;8.894;2022-10-17T16:38:56;6.17;;;4.30;;
3959;SDS011;1994;48.640;8.894;2022-10-17T16:41:32;6.60;;;4.67;;
3959;SDS011;1994;48.640;8.894;2022-10-17T16:44:02;7.30;;;4.40;;
3959;SDS011;1994;48.640;8.894;2022-10-17T16:46:31;7.73;;;5.80;;
3959;SDS011;1994;48.640;8.894;2022-10-17T16:48:59;10.63;;;5.70;;
3959;SDS011;1994;48.640;8.894;2022-10-17T16:51:27;17.20;;;7.07;;
3959;SDS011;1994;48.640;8.894;2022-10-17T16:53:53;11.23;;;5.77;;
3959;SDS011;1994;48.640;8.894;2022-10-17T16:56:21;9.10;;;5.87;;
3959;SDS011;1994;48.640;8.894;2022-10-17T16:58:48;6.40;;;3.50;;
3959;SDS011;1994;48.640;8.894;2022-10-17T17:01:16;6.17;;;2.90;;
3959;SDS011;1994;48.640;8.894;2022-10-17T17:03:45;4.87;;;3.00;;
3959;SDS011;1994;48.640;8.894;2022-10-17T17:06:13;6.87;;;3.43;;
3959;SDS011;1994;48.640;8.894;2022-10-17T17:08:41;13.83;;;4.77;;
3959;SDS011;1994;48.640;8.894;2022-10-17T17:11:14;4.20;;;3.30;;
3959;SDS011;1994;48.640;8.894;2022-10-17T17:13:41;6.57;;;3.00;;
3959;SDS011;1994;48.640;8.894;2022-10-17T17:16:08;6.73;;;2.87;;
3959;SDS011;1994;48.640;8.894;2022-10-17T17:18:46;4.50;;;2.60;;
3959;SDS011;1994;48.640;8.894;2022-10-17T17:21:15;3.30;;;3.00;;
3959;SDS011;1994;48.640;8.894;2022-10-17T17:23:41;4.00;;;3.10;;
3959;SDS011;1994;48.640;8.894;2022-10-17T17:26:15;6.30;;;3.10;;
3959;SDS011;1994;48.640;8.894;2022-10-17T17:28:44;4.97;;;2.47;;
3959;SDS011;1994;48.640;8.894;2022-10-17T17:31:11;4.47;;;3.10;;
3959;SDS011;1994;48.640;8.894;2022-10-17T17:33:46;5.90;;;2.70;;
3959;SDS011;1994;48.640;8.894;2022-10-17T17:36:17;7.70;;;2.50;;
3959;SDS011;1994;48.640;8.894;2022-10-17T17:38:46;6.30;;;2.80;;
3959;SDS011;1994;48.640;8.894;2022-10-17T17:41:15;8.17;;;3.27;;
3959;SDS011;1994;48.640;8.894;2022-10-17T17:43:43;5.70;;;2.97;;
3959;SDS011;1994;48.640;8.894;2022-10-17T17:46:11;5.10;;;3.00;;
3959;SDS011;1994;48.640;8.894;2022-10-17T17:48:40;4.00;;;2.93;;
3959;SDS011;1994;48.640;8.894;2022-10-17T17:51:16;10.33;;;3.17;;
3959;SDS011;1994;48.640;8.894;2022-10-17T17:53:56;5.73;;;3.17;;
3959;SDS011;1994;48.640;8.894;2022-10-17T17:56:22;4.93;;;3.70;;
3959;SDS011;1994;48.640;8.894;2022-10-17T17:58:53;8.83;;;4.53;;
3959;SDS011;1994;48.640;8.894;2022-10-17T18:01:25;5.77;;;4.30;;
3959;SDS011;1994;48.640;8.894;2022-10-17T18:03:57;6.93;;;3.90;;
3959;SDS011;1994;48.640;8.894;2022-10-17T18:06:23;12.30;;;4.47;;
3959;SDS011;1994;48.640;8.894;2022-10-17T18:08:50;7.80;;;3.70;;
3959;SDS011;1994;48.640;8.894;2022-10-17T18:11:20;12.13;;;3.83;;
3959;SDS011;1994;48.640;8.894;2022-10-17T18:13:46;9.13;;;4.13;;
3959;SDS011;1994;48.640;8.894;2022-10-17T18:16:12;15.40;;;6.00;;
3959;SDS011;1994;48.640;8.894;2022-10-17T18:18:39;12.63;;;5.60;;
3959;SDS011;1994;48.640;8.894;2022-10-17T18:21:08;23.60;;;6.37;;
3959;SDS011;1994;48.640;8.894;2022-10-17T18:23:37;13.67;;;5.17;;
3959;SDS011;1994;48.640;8.894;2022-10-17T18:26:07;10.97;;;6.83;;
3959;SDS011;1994;48.640;8.894;2022-10-17T18:28:34;9.63;;;5.47;;